createdAt,value
2019-05-01T00:02:06.039Z,13.20
2019-05-01T00:04:42.803Z,13.20
2019-05-01T00:07:25.858Z,13.10
2019-05-01T00:09:56.559Z,13.10
2019-05-01T00:12:25.955Z,13.20
2019-05-01T00:14:55.276Z,13.10
2019-05-01T00:17:27.576Z,13.00
2019-05-01T00:19:57.141Z,13.10
2019-05-01T00:22:27.880Z,13.00
2019-05-01T00:24:57.143Z,13.00
2019-05-01T00:27:26.455Z,13.10
2019-05-01T00:29:55.723Z,13.20
2019-05-01T00:32:25.993Z,13.10
2019-05-01T00:34:55.303Z,13.10
2019-05-01T00:37:24.571Z,13.10
2019-05-01T00:39:53.878Z,13.10
2019-05-01T00:42:23.191Z,12.90
2019-05-01T00:44:52.530Z,12.80
2019-05-01T00:47:21.840Z,12.90
2019-05-01T00:49:51.107Z,12.90
2019-05-01T00:52:20.383Z,12.90
2019-05-01T00:54:51.307Z,12.80
2019-05-01T00:57:37.180Z,12.60
2019-05-01T01:00:14.133Z,12.60
2019-05-01T01:02:45.046Z,12.60
2019-05-01T01:05:15.544Z,12.60
2019-05-01T01:07:44.811Z,12.50
2019-05-01T01:10:14.310Z,12.40
2019-05-01T01:12:43.633Z,12.40
2019-05-01T01:15:13.314Z,12.40
2019-05-01T01:17:42.594Z,12.40
2019-05-01T01:20:12.014Z,12.30
2019-05-01T01:22:41.471Z,12.30
2019-05-01T01:25:11.159Z,12.30
2019-05-01T01:27:40.654Z,12.30
2019-05-01T01:30:10.451Z,12.40
2019-05-01T01:32:39.775Z,12.40
2019-05-01T01:35:09.319Z,12.40
2019-05-01T01:37:38.675Z,12.20
2019-05-01T01:40:08.278Z,12.20
2019-05-01T01:42:38.713Z,12.20
2019-05-01T01:45:12.428Z,12.20
2019-05-01T01:48:00.322Z,12.30
2019-05-01T01:50:30.015Z,12.20
2019-05-01T01:52:59.493Z,12.00
2019-05-01T01:55:29.374Z,12.10
2019-05-01T01:57:58.983Z,12.20
2019-05-01T02:00:29.937Z,12.10
2019-05-01T02:03:01.448Z,12.00
2019-05-01T02:05:32.522Z,12.10
2019-05-01T02:08:02.740Z,12.10
2019-05-01T02:10:42.568Z,12.20
2019-05-01T02:13:03.476Z,12.20
2019-05-01T02:15:32.846Z,12.20
2019-05-01T02:18:02.172Z,12.10
2019-05-01T02:20:31.666Z,12.20
2019-05-01T02:23:02.237Z,12.20
2019-05-01T02:25:33.382Z,12.20
2019-05-01T02:28:23.267Z,12.20
2019-05-01T02:31:27.151Z,12.20
2019-05-01T02:33:47.271Z,12.20
2019-05-01T02:36:19.038Z,12.10
2019-05-01T02:38:49.806Z,11.80
2019-05-01T02:41:20.550Z,11.90
2019-05-01T02:43:54.277Z,12.00
2019-05-01T02:46:25.762Z,12.00
2019-05-01T02:49:04.064Z,12.00
2019-05-01T02:51:35.251Z,12.00
2019-05-01T02:54:06.000Z,11.80
2019-05-01T02:56:38.033Z,11.70
2019-05-01T02:59:09.123Z,11.60
2019-05-01T03:01:47.392Z,11.50
2019-05-01T03:04:11.224Z,11.60
2019-05-01T03:06:40.951Z,11.60
2019-05-01T03:09:10.582Z,11.60
2019-05-01T03:11:41.961Z,11.60
2019-05-01T03:14:14.291Z,11.60
2019-05-01T03:16:45.568Z,11.50
2019-05-01T03:19:28.720Z,11.50
2019-05-01T03:22:16.392Z,11.50
2019-05-01T03:24:45.899Z,11.20
2019-05-01T03:27:17.084Z,11.20
2019-05-01T03:29:48.098Z,11.10
2019-05-01T03:32:19.519Z,11.10
2019-05-01T03:34:52.659Z,11.00
2019-05-01T03:37:21.219Z,11.10
2019-05-01T03:39:50.851Z,11.20
2019-05-01T03:42:22.355Z,11.20
2019-05-01T03:44:51.906Z,11.20
2019-05-01T03:47:21.697Z,11.20
2019-05-01T03:49:51.184Z,11.20
2019-05-01T03:52:20.671Z,11.30
2019-05-01T03:54:50.278Z,11.30
2019-05-01T03:57:19.846Z,11.30
2019-05-01T03:59:49.155Z,11.10
2019-05-01T04:02:32.763Z,11.20
2019-05-01T04:04:55.179Z,11.10
2019-05-01T04:07:24.615Z,11.20
2019-05-01T04:09:54.217Z,11.10
2019-05-01T04:12:23.775Z,11.20
2019-05-01T04:14:53.205Z,11.10
2019-05-01T04:17:33.164Z,11.00
2019-05-01T04:20:02.576Z,11.00
2019-05-01T04:22:31.935Z,11.10
2019-05-01T04:25:01.572Z,11.30
2019-05-01T04:27:32.794Z,11.20
2019-05-01T04:30:19.001Z,11.30
2019-05-01T04:32:52.958Z,11.40
2019-05-01T04:35:25.719Z,11.30
2019-05-01T04:37:55.301Z,11.30
2019-05-01T04:40:25.229Z,11.40
2019-05-01T04:42:56.135Z,11.50
2019-05-01T04:45:26.135Z,11.50
2019-05-01T04:47:55.892Z,11.50
2019-05-01T04:50:25.366Z,11.50
2019-05-01T04:52:55.095Z,11.60
2019-05-01T04:55:24.494Z,11.50
2019-05-01T04:57:53.823Z,11.40
2019-05-01T05:00:23.155Z,11.40
2019-05-01T05:03:04.472Z,11.50
2019-05-01T05:05:26.810Z,11.60
2019-05-01T05:07:56.118Z,11.70
2019-05-01T05:10:25.493Z,11.70
2019-05-01T05:12:59.656Z,11.70
2019-05-01T05:15:31.311Z,11.60
2019-05-01T05:18:00.852Z,11.40
2019-05-01T05:20:30.663Z,11.30
2019-05-01T05:23:01.547Z,11.20
2019-05-01T05:25:31.425Z,11.30
2019-05-01T05:28:01.209Z,11.40
2019-05-01T05:30:32.343Z,11.40
2019-05-01T05:33:17.166Z,11.50
2019-05-01T05:35:38.398Z,11.70
2019-05-01T05:38:10.819Z,11.60
2019-05-01T05:40:41.963Z,11.40
2019-05-01T05:43:11.563Z,11.40
2019-05-01T05:45:41.108Z,11.50
2019-05-01T05:48:10.460Z,11.70
2019-05-01T05:50:58.795Z,11.70
2019-05-01T05:53:32.634Z,11.80
2019-05-01T05:56:05.407Z,11.80
2019-05-01T05:58:45.023Z,11.80
2019-05-01T06:01:29.746Z,11.90
2019-05-01T06:04:10.542Z,11.90
2019-05-01T06:06:46.829Z,11.70
2019-05-01T06:09:18.988Z,11.80
2019-05-01T06:11:53.376Z,11.70
2019-05-01T06:14:39.506Z,11.70
2019-05-01T06:17:29.868Z,11.70
2019-05-01T06:20:06.828Z,11.80
2019-05-01T06:22:40.806Z,11.80
2019-05-01T06:25:22.856Z,11.80
2019-05-01T06:27:51.254Z,11.80
2019-05-01T06:30:20.545Z,11.70
2019-05-01T06:32:49.957Z,11.70
2019-05-01T06:35:19.207Z,11.80
2019-05-01T06:38:03.711Z,11.80
2019-05-01T06:40:40.694Z,11.60
2019-05-01T06:43:14.753Z,11.40
2019-05-01T06:45:46.933Z,11.40
2019-05-01T06:48:25.131Z,11.40
2019-05-01T06:50:57.312Z,11.30
2019-05-01T06:53:26.999Z,11.30
2019-05-01T06:55:56.423Z,11.30
2019-05-01T06:58:27.347Z,11.20
2019-05-01T07:00:56.850Z,11.10
2019-05-01T07:03:26.260Z,11.30
2019-05-01T07:05:56.304Z,11.30
2019-05-01T07:08:29.531Z,11.30
2019-05-01T07:10:57.257Z,11.30
2019-05-01T07:13:26.678Z,11.20
2019-05-01T07:15:58.365Z,11.30
2019-05-01T07:18:29.138Z,11.40
2019-05-01T07:20:58.134Z,11.60
2019-05-01T07:23:27.650Z,11.70
2019-05-01T07:25:57.058Z,11.80
2019-05-01T07:28:28.936Z,12.00
2019-05-01T07:31:00.948Z,12.00
2019-05-01T07:33:30.410Z,11.90
2019-05-01T07:36:00.462Z,11.80
2019-05-01T07:38:32.910Z,11.90
2019-05-01T07:41:03.482Z,11.90
2019-05-01T07:43:40.290Z,12.00
2019-05-01T07:46:18.423Z,12.00
2019-05-01T07:48:45.996Z,11.90
2019-05-01T07:51:15.503Z,11.70
2019-05-01T07:53:45.496Z,11.60
2019-05-01T07:56:17.278Z,11.60
2019-05-01T07:58:47.546Z,11.60
2019-05-01T08:01:20.184Z,11.50
2019-05-01T08:03:49.508Z,11.40
2019-05-01T08:06:21.835Z,11.50
2019-05-01T08:08:49.861Z,11.60
2019-05-01T08:11:19.224Z,11.70
2019-05-01T08:13:48.463Z,11.80
2019-05-01T08:16:17.942Z,12.00
2019-05-01T08:18:59.024Z,11.90
2019-05-01T08:21:30.459Z,11.90
2019-05-01T08:23:59.864Z,11.60
2019-05-01T08:26:29.101Z,11.20
2019-05-01T08:29:06.815Z,11.10
2019-05-01T08:31:41.707Z,11.40
2019-05-01T08:34:12.603Z,11.60
2019-05-01T08:36:42.707Z,11.80
2019-05-01T08:39:13.934Z,11.80
2019-05-01T08:41:43.357Z,11.60
2019-05-01T08:44:12.638Z,11.60
2019-05-01T08:46:46.765Z,11.70
2019-05-01T08:49:19.090Z,11.90
2019-05-01T08:51:49.592Z,11.90
2019-05-01T08:54:19.021Z,11.80
2019-05-01T08:56:48.451Z,11.70
2019-05-01T08:59:19.343Z,11.90
2019-05-01T09:01:50.616Z,12.00
2019-05-01T09:04:19.731Z,11.70
2019-05-01T09:06:49.151Z,11.40
2019-05-01T09:09:18.516Z,11.40
2019-05-01T09:11:47.822Z,11.50
2019-05-01T09:14:17.187Z,11.70
2019-05-01T09:16:46.458Z,11.80
2019-05-01T09:19:15.789Z,11.70
2019-05-01T09:21:45.073Z,11.60
2019-05-01T09:24:14.398Z,11.60
2019-05-01T09:26:50.213Z,11.70
2019-05-01T09:29:20.956Z,11.80
2019-05-01T09:31:50.782Z,12.00
2019-05-01T09:34:21.088Z,11.90
2019-05-01T09:36:50.640Z,11.90
2019-05-01T09:39:21.015Z,12.00
2019-05-01T09:41:50.429Z,12.10
2019-05-01T09:44:19.701Z,12.00
2019-05-01T09:46:49.037Z,12.20
2019-05-01T09:49:20.295Z,12.40
2019-05-01T09:51:55.151Z,12.50
2019-05-01T09:54:26.053Z,12.60
2019-05-01T09:56:55.366Z,12.60
2019-05-01T09:59:24.739Z,12.70
2019-05-01T10:01:55.505Z,12.70
2019-05-01T10:04:25.501Z,12.50
2019-05-01T10:06:55.812Z,12.40
2019-05-01T10:09:27.018Z,12.20
2019-05-01T10:11:56.355Z,12.30
2019-05-01T10:14:25.752Z,12.60
2019-05-01T10:16:55.040Z,12.80
2019-05-01T10:19:24.317Z,13.10
2019-05-01T10:21:53.636Z,13.20
2019-05-01T10:24:22.906Z,13.00
2019-05-01T10:26:55.267Z,13.10
2019-05-01T10:29:38.814Z,13.30
2019-05-01T10:32:26.432Z,13.30
2019-05-01T10:35:00.118Z,13.10
2019-05-01T10:37:33.739Z,12.90
2019-05-01T10:40:01.872Z,12.70
2019-05-01T10:42:32.730Z,12.70
2019-05-01T10:45:02.020Z,12.80
2019-05-01T10:47:31.249Z,13.00
2019-05-01T10:50:00.518Z,13.20
2019-05-01T10:52:29.851Z,13.40
2019-05-01T10:54:59.106Z,13.70
2019-05-01T10:57:28.462Z,13.90
2019-05-01T10:59:57.803Z,14.00
2019-05-01T11:02:28.174Z,14.20
2019-05-01T11:04:57.479Z,14.30
2019-05-01T11:07:26.850Z,14.40
2019-05-01T11:09:57.450Z,14.60
2019-05-01T11:12:26.727Z,14.60
2019-05-01T11:14:56.091Z,14.70
2019-05-01T11:17:25.327Z,14.70
2019-05-01T11:19:54.586Z,14.80
2019-05-01T11:22:23.931Z,15.10
2019-05-01T11:24:53.194Z,15.30
2019-05-01T11:27:22.578Z,15.30
2019-05-01T11:29:51.902Z,15.10
2019-05-01T11:32:31.479Z,15.30
2019-05-01T11:35:02.417Z,15.60
2019-05-01T11:37:33.320Z,15.50
2019-05-01T11:40:19.614Z,15.70
2019-05-01T11:42:48.863Z,16.10
2019-05-01T11:45:18.281Z,16.40
2019-05-01T11:47:47.554Z,16.50
2019-05-01T11:50:16.939Z,16.50
2019-05-01T11:52:46.312Z,16.80
2019-05-01T11:55:15.736Z,16.70
2019-05-01T11:57:45.139Z,16.50
2019-05-01T12:00:16.718Z,16.30
2019-05-01T12:02:47.546Z,16.00
2019-05-01T12:05:17.634Z,16.10
2019-05-01T12:07:48.195Z,15.50
2019-05-01T12:10:18.477Z,15.60
2019-05-01T12:12:47.825Z,16.00
2019-05-01T12:15:17.862Z,16.50
2019-05-01T12:17:50.941Z,17.10
2019-05-01T12:20:21.514Z,17.20
2019-05-01T12:22:51.528Z,17.20
2019-05-01T12:25:21.097Z,17.50
2019-05-01T12:27:50.356Z,17.50
2019-05-01T12:30:21.239Z,17.50
2019-05-01T12:32:50.590Z,17.50
2019-05-01T12:35:19.843Z,17.40
2019-05-01T12:37:49.194Z,17.30
2019-05-01T12:40:22.496Z,17.20
2019-05-01T12:42:53.141Z,17.00
2019-05-01T12:45:22.682Z,17.20
2019-05-01T12:47:53.591Z,17.60
2019-05-01T12:50:23.040Z,17.90
2019-05-01T12:52:59.939Z,18.00
2019-05-01T12:55:47.147Z,18.20
2019-05-01T12:58:16.407Z,18.40
2019-05-01T13:00:54.940Z,18.40
2019-05-01T13:03:24.261Z,18.40
2019-05-01T13:05:53.667Z,18.20
2019-05-01T13:08:23.027Z,18.30
2019-05-01T13:10:52.388Z,18.30
2019-05-01T13:13:21.676Z,18.30
2019-05-01T13:15:51.003Z,18.30
2019-05-01T13:18:20.340Z,18.20
2019-05-01T13:20:49.682Z,18.30
2019-05-01T13:23:18.953Z,18.20
2019-05-01T13:25:49.418Z,18.30
2019-05-01T13:28:32.215Z,18.40
2019-05-01T13:31:20.903Z,18.40
2019-05-01T13:33:50.303Z,18.40
2019-05-01T13:36:19.618Z,18.40
2019-05-01T13:38:48.902Z,18.40
2019-05-01T13:41:18.512Z,18.30
2019-05-01T13:43:47.844Z,18.30
2019-05-01T13:46:17.247Z,18.20
2019-05-01T13:48:46.636Z,17.90
2019-05-01T13:51:16.991Z,17.40
2019-05-01T13:53:46.395Z,17.30
2019-05-01T13:56:15.783Z,17.20
2019-05-01T13:58:45.011Z,17.40
2019-05-01T14:01:15.332Z,17.70
2019-05-01T14:03:44.676Z,17.90
2019-05-01T14:06:14.039Z,17.90
2019-05-01T14:08:43.275Z,17.90
2019-05-01T14:11:12.596Z,17.90
2019-05-01T14:13:41.979Z,18.00
2019-05-01T14:16:14.347Z,18.00
2019-05-01T14:18:43.623Z,18.20
2019-05-01T14:21:17.571Z,18.00
2019-05-01T14:24:05.129Z,18.20
2019-05-01T14:26:34.818Z,18.40
2019-05-01T14:29:04.479Z,18.50
2019-05-01T14:31:33.951Z,18.50
2019-05-01T14:34:03.227Z,18.60
2019-05-01T14:36:32.486Z,18.60
2019-05-01T14:39:01.761Z,18.80
2019-05-01T14:41:31.020Z,19.00
2019-05-01T14:44:00.286Z,19.00
2019-05-01T14:46:29.617Z,19.00
2019-05-01T14:48:58.907Z,19.00
2019-05-01T14:51:28.167Z,18.90
2019-05-01T14:53:57.515Z,18.90
2019-05-01T14:56:26.770Z,18.90
2019-05-01T14:58:56.042Z,18.70
2019-05-01T15:01:25.430Z,18.60
2019-05-01T15:03:54.866Z,18.60
2019-05-01T15:06:24.181Z,18.60
2019-05-01T15:08:53.522Z,18.40
2019-05-01T15:11:22.864Z,18.40
2019-05-01T15:14:00.071Z,18.40
2019-05-01T15:16:39.948Z,18.40
2019-05-01T15:19:10.831Z,18.40
2019-05-01T15:21:42.892Z,18.40
2019-05-01T15:24:12.157Z,18.20
2019-05-01T15:26:41.692Z,18.20
2019-05-01T15:29:11.032Z,18.10
2019-05-01T15:31:40.562Z,18.10
2019-05-01T15:34:09.805Z,18.00
2019-05-01T15:36:39.043Z,18.00
2019-05-01T15:39:10.902Z,18.00
2019-05-01T15:41:44.763Z,17.80
2019-05-01T15:44:18.737Z,17.60
2019-05-01T15:46:49.278Z,17.70
2019-05-01T15:49:18.566Z,17.40
2019-05-01T15:51:47.968Z,17.30
2019-05-01T15:54:18.435Z,17.30
2019-05-01T15:56:47.706Z,17.40
2019-05-01T15:59:17.015Z,17.50
2019-05-01T16:01:46.365Z,17.30
2019-05-01T16:04:15.831Z,17.30
2019-05-01T16:06:45.088Z,17.40
2019-05-01T16:09:14.422Z,17.30
2019-05-01T16:11:48.451Z,17.20
2019-05-01T16:14:17.922Z,17.20
2019-05-01T16:16:47.206Z,17.30
2019-05-01T16:19:16.552Z,17.40
2019-05-01T16:21:45.892Z,17.60
2019-05-01T16:24:15.184Z,17.60
2019-05-01T16:26:44.454Z,17.40
2019-05-01T16:29:13.779Z,17.40
2019-05-01T16:31:43.118Z,17.40
2019-05-01T16:34:13.711Z,17.20
2019-05-01T16:36:43.111Z,17.00
2019-05-01T16:39:14.343Z,17.10
2019-05-01T16:41:46.727Z,17.10
2019-05-01T16:44:16.106Z,17.10
2019-05-01T16:46:45.367Z,17.10
2019-05-01T16:49:14.624Z,17.10
2019-05-01T16:51:43.926Z,16.80
2019-05-01T16:54:13.260Z,16.80
2019-05-01T16:56:42.509Z,16.80
2019-05-01T16:59:11.883Z,17.00
2019-05-01T17:01:49.040Z,17.00
2019-05-01T17:04:25.852Z,16.90
2019-05-01T17:06:56.763Z,16.70
2019-05-01T17:09:42.309Z,16.70
2019-05-01T17:12:12.392Z,16.50
2019-05-01T17:14:41.636Z,16.50
2019-05-01T17:17:12.651Z,16.50
2019-05-01T17:19:41.924Z,16.60
2019-05-01T17:22:14.316Z,16.70
2019-05-01T17:24:42.436Z,16.80
2019-05-01T17:27:11.731Z,16.70
2019-05-01T17:29:41.047Z,16.50
2019-05-01T17:32:12.063Z,16.50
2019-05-01T17:34:41.363Z,16.50
2019-05-01T17:37:10.648Z,16.60
2019-05-01T17:39:39.983Z,16.60
2019-05-01T17:42:09.381Z,16.60
2019-05-01T17:44:39.600Z,16.70
2019-05-01T17:47:09.211Z,16.60
2019-05-01T17:49:41.104Z,16.50
2019-05-01T17:52:09.553Z,16.40
2019-05-01T17:54:38.917Z,16.30
2019-05-01T17:57:11.017Z,16.20
2019-05-01T17:59:40.291Z,16.10
2019-05-01T18:02:11.515Z,16.10
2019-05-01T18:04:54.735Z,16.10
2019-05-01T18:07:24.499Z,16.00
2019-05-01T18:09:55.690Z,16.00
2019-05-01T18:12:28.567Z,16.10
2019-05-01T18:14:55.784Z,16.10
2019-05-01T18:17:25.182Z,16.10
2019-05-01T18:19:58.090Z,16.00
2019-05-01T18:22:45.537Z,16.00
2019-05-01T18:25:19.304Z,15.90
2019-05-01T18:28:02.664Z,15.90
2019-05-01T18:30:33.711Z,15.80
2019-05-01T18:33:03.016Z,15.80
2019-05-01T18:35:32.274Z,15.80
2019-05-01T18:38:10.921Z,15.80
2019-05-01T18:40:38.804Z,15.70
2019-05-01T18:43:08.417Z,15.70
2019-05-01T18:45:49.630Z,15.70
2019-05-01T18:48:20.371Z,15.70
2019-05-01T18:50:55.059Z,15.60
2019-05-01T18:53:21.508Z,15.60
2019-05-01T18:55:50.959Z,15.60
2019-05-01T18:58:20.304Z,15.50
2019-05-01T19:00:49.855Z,15.50
2019-05-01T19:03:22.179Z,15.50
2019-05-01T19:05:50.485Z,15.40
2019-05-01T19:08:19.731Z,15.40
2019-05-01T19:10:49.282Z,15.40
2019-05-01T19:13:18.711Z,15.50
2019-05-01T19:15:48.015Z,15.40
2019-05-01T19:18:17.435Z,15.30
2019-05-01T19:20:58.837Z,15.30
2019-05-01T19:23:22.086Z,15.30
2019-05-01T19:25:50.891Z,15.30
2019-05-01T19:28:20.653Z,15.30
2019-05-01T19:30:50.059Z,15.20
2019-05-01T19:33:19.556Z,15.00
2019-05-01T19:35:49.003Z,15.00
2019-05-01T19:38:18.648Z,14.90
2019-05-01T19:40:48.142Z,14.90
2019-05-01T19:43:17.557Z,14.90
2019-05-01T19:45:48.515Z,14.80
2019-05-01T19:48:17.943Z,14.80
2019-05-01T19:50:49.604Z,14.70
2019-05-01T19:53:19.146Z,14.60
2019-05-01T19:55:48.596Z,14.60
2019-05-01T19:58:17.971Z,14.50
2019-05-01T20:00:53.230Z,14.40
2019-05-01T20:03:23.018Z,14.40
2019-05-01T20:05:52.505Z,14.40
2019-05-01T20:08:22.061Z,14.30
2019-05-01T20:10:51.567Z,14.30
2019-05-01T20:13:20.920Z,14.20
2019-05-01T20:15:50.268Z,14.10
2019-05-01T20:18:19.623Z,14.00
2019-05-01T20:20:49.169Z,14.00
2019-05-01T20:23:18.514Z,14.00
2019-05-01T20:25:50.962Z,14.00
2019-05-01T20:28:20.042Z,14.00
2019-05-01T20:30:53.876Z,13.90
2019-05-01T20:33:25.898Z,13.80
2019-05-01T20:35:55.281Z,13.70
2019-05-01T20:38:26.209Z,13.60
2019-05-01T20:40:55.543Z,13.60
2019-05-01T20:43:25.217Z,13.60
2019-05-01T20:45:54.660Z,13.60
2019-05-01T20:48:25.135Z,13.60
2019-05-01T20:50:54.779Z,13.60
2019-05-01T20:53:24.076Z,13.60
2019-05-01T20:55:54.957Z,13.60
2019-05-01T20:58:24.318Z,13.60
2019-05-01T21:00:55.267Z,13.50
2019-05-01T21:03:24.612Z,13.60
2019-05-01T21:05:56.579Z,13.60
2019-05-01T21:08:34.418Z,13.50
2019-05-01T21:11:06.021Z,13.40
2019-05-01T21:13:33.830Z,13.40
2019-05-01T21:16:03.891Z,13.40
2019-05-01T21:18:33.519Z,13.40
2019-05-01T21:21:03.545Z,13.50
2019-05-01T21:23:33.424Z,13.50
2019-05-01T21:26:03.867Z,13.50
2019-05-01T21:28:36.196Z,13.50
2019-05-01T21:31:05.517Z,13.40
2019-05-01T21:33:34.783Z,13.40
2019-05-01T21:36:08.206Z,13.30
2019-05-01T21:38:35.042Z,13.20
2019-05-01T21:41:04.438Z,13.30
2019-05-01T21:43:37.007Z,13.20
2019-05-01T21:46:08.013Z,13.30
2019-05-01T21:48:38.496Z,13.30
2019-05-01T21:51:07.834Z,13.20
2019-05-01T21:53:41.600Z,13.10
2019-05-01T21:56:08.189Z,13.20
2019-05-01T21:58:37.544Z,13.20
2019-05-01T22:01:07.274Z,13.10
2019-05-01T22:03:36.694Z,13.10
2019-05-01T22:06:05.992Z,12.90
2019-05-01T22:08:39.140Z,12.90
2019-05-01T22:11:06.803Z,13.00
2019-05-01T22:13:36.160Z,13.00
2019-05-01T22:16:12.889Z,13.10
2019-05-01T22:18:56.231Z,13.10
2019-05-01T22:21:33.033Z,13.00
2019-05-01T22:24:20.418Z,12.90
2019-05-01T22:26:59.966Z,12.90
2019-05-01T22:29:32.407Z,12.90
2019-05-01T22:32:03.955Z,12.90
2019-05-01T22:34:51.312Z,12.90
2019-05-01T22:37:20.539Z,12.90
2019-05-01T22:39:53.718Z,12.90
2019-05-01T22:42:23.122Z,13.00
2019-05-01T22:44:53.770Z,12.80
2019-05-01T22:47:23.179Z,12.80
2019-05-01T22:49:52.441Z,12.80
2019-05-01T22:52:21.759Z,12.80
2019-05-01T22:54:52.634Z,12.70
2019-05-01T22:57:21.947Z,12.60
2019-05-01T22:59:51.220Z,12.50
2019-05-01T23:02:28.492Z,12.50
2019-05-01T23:04:55.951Z,12.60
2019-05-01T23:07:25.771Z,12.50
2019-05-01T23:09:59.364Z,12.40
2019-05-01T23:12:26.224Z,12.30
2019-05-01T23:14:55.615Z,12.20
2019-05-01T23:17:39.597Z,12.40
2019-05-01T23:20:09.229Z,12.40
2019-05-01T23:22:38.460Z,12.30
2019-05-01T23:25:09.688Z,12.10
2019-05-01T23:27:39.001Z,12.10
2019-05-01T23:30:10.679Z,12.10
2019-05-01T23:32:46.110Z,12.10
2019-05-01T23:35:15.587Z,12.20
2019-05-01T23:37:44.848Z,12.20
2019-05-01T23:40:15.511Z,12.10
2019-05-01T23:42:52.275Z,12.10
2019-05-01T23:45:16.932Z,12.10
2019-05-01T23:47:46.215Z,12.10
2019-05-01T23:50:15.574Z,12.00
2019-05-01T23:52:44.894Z,11.80
2019-05-01T23:55:14.287Z,11.80
2019-05-01T23:57:43.544Z,11.70
